Adams, Minnesota
Current Conditions -  °F | °C
As of 12:15 AM on Saturday 29 Nov 2014 (Local Time) from KAUM Reporting Station
Haze Haze  
Wind Chill: 14°   Ceiling: Unl
Heat Index: 21°   Visibility: 5mi
Dew Point: 19°   Wind: 6mph
Humidity: 93%   Direction: 130°SE
Pressure: 29.64"   Gusts: NA
Location:  43.57°N, 92.72°W
Report Text: KAUM 290615Z AUTO 13005KT 5SM BR CLR M06/M07 A2964 RMK AO2
Loading
Personal Weather Stations






























Interactive Weather Map New forecast layout! Learn more

10-Day Weather Forecast

Advertisements
Track Severe Weather on mobile